Pagrindinis puslapis
METAR-TAF:

METAR-TAF

Oro uostai :

Trondheimas, Norvegija

platuma: 63-28N, ilguma: 010-56E, Aukštis: 1 m

Dabartinis oras

Ataskaita buvo paskelbta 16 minutes, ne 07:50 UTC
Vėjas 8 kt iš Rytų/Šiaurės Rytų, svyruoja nuo Šiaurės ir Rytų/Pietryčių
Temperatūra 15°C
Drėgmė 59%
Slėgis 1014 hPa
Matomumas 10 km arba daugiau
nėra debesų žemiau 1500 m ir nėra kamuolinių lietaus debesų

METAR: ENVA 010750Z 07008KT 010V110 CAVOK 15/07 Q1014 TEMPO 16018G28KT RMK WIND 670FT 11008KT

Laikas: 10:06 (08:06 UTC)

Prognozė

Prognozė galioja nuo 01 metu 06 UTC su 02 metu 06 UTC
Vėjas 10 kt iš Rytų/Pietryčių
Matomumas 10 km arba daugiau
nėra debesų žemiau 1500 m ir nėra kamuolinių lietaus debesų
Laikinai
nuo 01 metu 06 UTC su 01 metu 16 UTC
Vėjas 18 kt iš Pietų su gūsio iki 28 kt

TAF: ENVA 0106/0206 12010KT CAVOK TEMPO 0106/0116 17018G28KT

Orai ataskaitas ir orų prognozės (METAR, TAF).

turimą stotys yra geltonos ir raudonos taškus žemėlapyje.

Perkelti pele per norėdami pamatyti stoties vardą.

Tada spustelėkite, norėdami matyti oro stebėjimo ir prognozės.

Norėdami pakeisti žemėlapį: spustelėkite ant žalios mygtukų su juodo kryžiaus žemyn,; žalią mygtuką su brūkšneliu, jei norite nutolinti; arba žalių rodyklių gretimoms žemėlapius.


METAR-TAF: